Time;durP1;ratioP1;P1;durP2;ratioP2;P2;SDS_P1;SDS_P2;PMS_P1;PMS_P2;Temp;Humidity;BMP_temperature;BMP_pressure;BME280_temperature;BME280_humidity;BME280_pressure;Samples;Min_cycle;Max_cycle;Signal;HPM_P1;HPM_P2
2023/10/01 00:01:17;;;;;;;14.27;7.53;;;;;;;;;;4847286;29;20049;-78
2023/10/01 00:03:48;;;;;;;14.10;6.93;;;;;;;;;;4862840;29;20050;-78
2023/10/01 00:06:19;;;;;;;16.38;7.38;;;;;;;;;;4862517;29;20041;-76
2023/10/01 00:08:50;;;;;;;14.15;7.15;;;;;;;;;;4862515;29;20049;-77
2023/10/01 00:11:20;;;;;;;18.85;7.82;;;;;;;;;;4862022;29;20052;-77
2023/10/01 00:13:50;;;;;;;15.45;7.65;;;;;;;;;;4862292;29;20050;-77
2023/10/01 00:16:21;;;;;;;17.88;6.65;;;;;;;;;;4861952;29;20053;-78
2023/10/01 00:18:54;;;;;;;14.57;6.65;;;;;;;;;;4857522;29;20068;-77
2023/10/01 00:21:26;;;;;;;12.15;6.80;;;;;;;;;;4862307;29;20072;-78
2023/10/01 00:23:56;;;;;;;14.35;6.85;;;;;;;;;;4862572;29;20050;-78
2023/10/01 00:26:27;;;;;;;13.32;6.63;;;;;;;;;;4862003;29;20053;-78
2023/10/01 00:28:57;;;;;;;14.40;6.53;;;;;;;;;;4862109;29;20038;-77
2023/10/01 00:31:27;;;;;;;15.55;7.15;;;;;;;;;;4862152;29;20042;-77
2023/10/01 00:33:58;;;;;;;13.27;6.90;;;;;;;;;;4862392;29;20046;-78
2023/10/01 00:36:30;;;;;;;11.00;5.90;;;;;;;;;;4842890;29;20049;-78
2023/10/01 00:39:00;;;;;;;13.02;7.00;;;;;;;;;;4847847;29;20045;-78
2023/10/01 00:41:30;;;;;;;12.73;6.05;;;;;;;;;;4850783;29;20050;-77
2023/10/01 00:44:04;;;;;;;14.05;6.93;;;;;;;;;;4862946;29;20053;-77
2023/10/01 00:46:34;;;;;;;12.35;6.05;;;;;;;;;;4859486;29;20045;-77
2023/10/01 00:49:07;;;;;;;11.68;6.28;;;;;;;;;;4862837;29;20060;-78
2023/10/01 00:51:37;;;;;;;12.77;5.63;;;;;;;;;;4845855;29;20425;-78
2023/10/01 00:54:10;;;;;;;12.77;5.63;;;;;;;;;;4845268;29;20054;-77
2023/10/01 00:56:42;;;;;;;15.25;5.63;;;;;;;;;;4846173;29;20056;-77
2023/10/01 00:59:13;;;;;;;10.15;5.57;;;;;;;;;;4861832;29;20046;-77
2023/10/01 01:01:44;;;;;;;11.77;5.63;;;;;;;;;;4845806;29;20401;-78
2023/10/01 01:04:21;;;;;;;11.20;5.82;;;;;;;;;;4862192;29;20057;-77
2023/10/01 01:06:52;;;;;;;9.60;5.32;;;;;;;;;;4862357;29;20144;-76
2023/10/01 01:09:23;;;;;;;14.27;6.50;;;;;;;;;;4861995;29;20420;-77
2023/10/01 01:11:53;;;;;;;11.98;5.70;;;;;;;;;;4845314;29;20050;-78
2023/10/01 01:14:24;;;;;;;11.32;5.43;;;;;;;;;;4861584;29;20049;-77
2023/10/01 01:16:56;;;;;;;10.50;4.85;;;;;;;;;;4856865;29;20541;-78
2023/10/01 01:19:27;;;;;;;10.27;5.13;;;;;;;;;;4861170;29;20056;-78
2023/10/01 01:21:57;;;;;;;11.05;5.07;;;;;;;;;;4840380;29;20057;-77
2023/10/01 01:24:28;;;;;;;13.88;7.07;;;;;;;;;;4861368;29;20421;-77
2023/10/01 01:27:06;;;;;;;14.02;5.50;;;;;;;;;;4861275;29;20068;-77
2023/10/01 01:29:44;;;;;;;9.82;5.22;;;;;;;;;;4844575;29;20072;-77
2023/10/01 01:32:14;;;;;;;14.63;5.65;;;;;;;;;;4871606;29;20072;-78
2023/10/01 01:34:45;;;;;;;13.60;5.43;;;;;;;;;;4845291;29;20152;-77
2023/10/01 01:37:46;;;;;;;13.75;5.43;;;;;;;;;;4861932;29;20512;-78
2023/10/01 01:40:31;;;;;;;14.75;5.57;;;;;;;;;;4857415;29;20050;-75
2023/10/01 01:43:15;;;;;;;9.93;5.38;;;;;;;;;;4845020;29;20089;-78
2023/10/01 01:45:46;;;;;;;11.95;5.55;;;;;;;;;;4844455;29;20473;-77
2023/10/01 01:51:03;;;;;;;10.88;5.15;;;;;;;;;;4843949;29;20057;-77
2023/10/01 01:53:35;;;;;;;9.27;4.75;;;;;;;;;;4844726;29;20054;-77
2023/10/01 01:56:10;;;;;;;9.85;5.03;;;;;;;;;;4844708;29;20058;-78
2023/10/01 01:58:43;;;;;;;10.25;5.20;;;;;;;;;;4826780;29;20050;-76
2023/10/01 02:03:46;;;;;;;13.00;5.72;;;;;;;;;;4843440;29;20057;-77
2023/10/01 02:06:26;;;;;;;11.98;5.13;;;;;;;;;;4857000;29;20053;-77
2023/10/01 02:08:57;;;;;;;10.82;6.38;;;;;;;;;;4844145;29;20061;-78
2023/10/01 02:11:32;;;;;;;11.40;5.50;;;;;;;;;;4843732;29;20438;-78
2023/10/01 02:14:05;;;;;;;11.98;4.93;;;;;;;;;;4843524;29;20109;-78
2023/10/01 02:16:37;;;;;;;10.95;5.30;;;;;;;;;;4828076;29;20053;-77
2023/10/01 02:19:17;;;;;;;13.43;5.35;;;;;;;;;;4843562;29;20057;-78
2023/10/01 02:21:59;;;;;;;11.95;4.95;;;;;;;;;;4843458;29;20050;-77
2023/10/01 02:24:45;;;;;;;13.15;5.35;;;;;;;;;;4842586;29;20041;-77
2023/10/01 02:27:26;;;;;;;12.35;5.70;;;;;;;;;;4843662;29;20046;-78
2023/10/01 02:30:13;;;;;;;12.27;5.43;;;;;;;;;;4843502;29;20064;-78
2023/10/01 02:33:15;;;;;;;11.38;5.22;;;;;;;;;;4843070;29;20054;-78
2023/10/01 02:35:41;;;;;;;10.68;5.22;;;;;;;;;;4843128;29;20046;-78
2023/10/01 02:41:02;;;;;;;14.40;6.35;;;;;;;;;;4856115;29;20057;-77
2023/10/01 02:43:34;;;;;;;10.23;5.60;;;;;;;;;;4842642;29;20054;-78
2023/10/01 02:46:15;;;;;;;13.43;5.78;;;;;;;;;;4843247;29;20050;-78
2023/10/01 02:48:47;;;;;;;12.68;5.25;;;;;;;;;;4843085;29;20050;-77
2023/10/01 02:51:32;;;;;;;13.07;5.65;;;;;;;;;;4843316;29;20054;-77
2023/10/01 02:54:05;;;;;;;10.93;5.47;;;;;;;;;;4843297;29;20050;-76
2023/10/01 02:56:52;;;;;;;9.95;5.50;;;;;;;;;;4826232;29;20062;-76
2023/10/01 02:59:23;;;;;;;12.35;6.07;;;;;;;;;;4842902;29;20050;-76
2023/10/01 03:01:55;;;;;;;10.77;5.13;;;;;;;;;;4825967;29;20070;-78
2023/10/01 03:04:27;;;;;;;9.52;5.50;;;;;;;;;;4826454;29;20081;-78
2023/10/01 03:06:58;;;;;;;15.32;5.43;;;;;;;;;;4842777;29;20073;-77
2023/10/01 03:09:34;;;;;;;13.15;5.38;;;;;;;;;;4842895;29;20050;-78
2023/10/01 03:17:55;;;;;;;11.30;5.43;;;;;;;;;;4825893;29;20046;-77
2023/10/01 03:23:17;;;;;;;14.10;5.50;;;;;;;;;;4842574;29;20054;-77
2023/10/01 03:26:08;;;;;;;;;;;;;;;;;;4843378;29;20049;-77
2023/10/01 03:31:29;;;;;;;10.77;5.68;;;;;;;;;;4842889;29;19924;-76
2023/10/01 03:33:59;;;;;;;12.05;5.28;;;;;;;;;;4842701;29;20050;-77
2023/10/01 03:36:32;;;;;;;11.85;5.15;;;;;;;;;;4828289;29;20073;-78
2023/10/01 03:39:25;;;;;;;10.38;5.05;;;;;;;;;;4846494;29;20409;-77
2023/10/01 03:42:13;;;;;;;16.27;5.25;;;;;;;;;;4846013;29;20064;-76
2023/10/01 03:45:19;;;;;;;15.27;5.43;;;;;;;;;;4846609;29;20050;-77
2023/10/01 03:47:57;;;;;;;9.15;4.78;;;;;;;;;;4845935;29;20054;-77
2023/10/01 03:50:31;;;;;;;14.18;5.60;;;;;;;;;;4846280;29;20050;-77
2023/10/01 03:53:11;;;;;;;13.02;5.63;;;;;;;;;;4846169;29;20124;-77
2023/10/01 03:55:46;;;;;;;11.80;5.60;;;;;;;;;;4845943;29;20061;-77
2023/10/01 03:58:25;;;;;;;13.75;5.70;;;;;;;;;;4845655;29;20058;-76
2023/10/01 04:01:03;;;;;;;12.00;5.03;;;;;;;;;;4846372;29;20054;-77
2023/10/01 04:03:39;;;;;;;12.10;5.68;;;;;;;;;;4846094;29;20061;-78
2023/10/01 04:06:10;;;;;;;14.68;5.20;;;;;;;;;;4860171;29;20054;-77
2023/10/01 04:08:44;;;;;;;14.27;6.20;;;;;;;;;;4845984;29;20058;-78
2023/10/01 04:11:16;;;;;;;12.05;5.45;;;;;;;;;;4845661;29;20042;-78
2023/10/01 04:14:07;;;;;;;14.48;5.38;;;;;;;;;;4846278;29;20046;-78
2023/10/01 04:16:35;;;;;;;15.98;5.68;;;;;;;;;;4845511;29;20061;-77
2023/10/01 04:19:11;;;;;;;16.73;5.95;;;;;;;;;;4845828;29;20054;-77
2023/10/01 04:21:43;;;;;;;12.82;6.70;;;;;;;;;;4845711;29;20047;-77
2023/10/01 04:24:16;;;;;;;15.80;5.75;;;;;;;;;;4845917;29;20056;-76
2023/10/01 04:26:46;;;;;;;11.63;5.40;;;;;;;;;;4845279;29;20049;-76
2023/10/01 04:29:17;;;;;;;10.32;5.30;;;;;;;;;;4845946;29;20462;-76
2023/10/01 04:31:48;;;;;;;12.85;5.22;;;;;;;;;;4845953;29;20053;-78
2023/10/01 04:34:20;;;;;;;9.43;4.63;;;;;;;;;;4845697;29;20061;-77
2023/10/01 04:36:53;;;;;;;10.88;5.75;;;;;;;;;;4854793;29;20050;-77
2023/10/01 04:39:23;;;;;;;12.23;4.85;;;;;;;;;;4864093;29;20123;-76
2023/10/01 04:41:59;;;;;;;11.02;5.10;;;;;;;;;;4863724;29;20487;-77
2023/10/01 04:44:30;;;;;;;11.95;5.95;;;;;;;;;;4864108;29;20065;-77
2023/10/01 04:47:30;;;;;;;9.35;4.53;;;;;;;;;;4862393;29;20052;-77
2023/10/01 04:49:56;;;;;;;11.50;4.93;;;;;;;;;;4863544;29;20054;-77
2023/10/01 04:52:26;;;;;;;11.88;5.18;;;;;;;;;;4864037;29;20049;-77
2023/10/01 04:54:58;;;;;;;9.25;4.65;;;;;;;;;;4863565;29;20049;-77
2023/10/01 04:57:48;;;;;;;8.55;4.68;;;;;;;;;;4862669;29;20520;-77
2023/10/01 05:00:22;;;;;;;9.75;3.95;;;;;;;;;;4863390;29;20481;-77
2023/10/01 05:02:53;;;;;;;13.30;4.75;;;;;;;;;;4863667;29;20049;-77
2023/10/01 05:05:26;;;;;;;12.27;5.60;;;;;;;;;;4862970;29;20053;-77
2023/10/01 05:08:01;;;;;;;14.20;5.50;;;;;;;;;;4847201;29;20049;-77
2023/10/01 05:10:50;;;;;;;12.38;5.38;;;;;;;;;;4863542;29;20340;-78
2023/10/01 05:13:22;;;;;;;12.60;5.07;;;;;;;;;;4862674;29;20053;-77
2023/10/01 05:15:58;;;;;;;;;;;;;;;;;;4863342;29;20049;-77
2023/10/01 05:18:30;;;;;;;11.35;5.30;;;;;;;;;;4846731;29;20272;-76
2023/10/01 05:21:23;;;;;;;13.07;5.30;;;;;;;;;;4847406;29;20065;-77
2023/10/01 05:23:55;;;;;;;9.77;5.18;;;;;;;;;;4862739;29;20065;-77
2023/10/01 05:26:35;;;;;;;10.70;5.40;;;;;;;;;;4863613;29;20440;-78
2023/10/01 05:29:08;;;;;;;10.27;5.10;;;;;;;;;;4862731;29;20057;-78
2023/10/01 05:31:39;;;;;;;11.00;5.93;;;;;;;;;;4863307;29;20049;-78
2023/10/01 05:34:11;;;;;;;11.10;5.30;;;;;;;;;;4863088;29;20072;-77
2023/10/01 05:36:41;;;;;;;13.63;5.30;;;;;;;;;;4864203;29;20124;-77
2023/10/01 05:39:11;;;;;;;11.15;5.07;;;;;;;;;;4871505;29;20053;-78
2023/10/01 05:41:44;;;;;;;12.93;5.70;;;;;;;;;;4886326;29;20038;-78
2023/10/01 05:44:15;;;;;;;12.88;5.55;;;;;;;;;;4885743;29;20041;-77
2023/10/01 05:46:49;;;;;;;18.88;5.18;;;;;;;;;;4882964;29;20045;-77
2023/10/01 05:49:19;;;;;;;11.75;4.88;;;;;;;;;;4886255;29;20043;-78
2023/10/01 05:51:48;;;;;;;10.68;5.63;;;;;;;;;;4886097;29;20025;-79
2023/10/01 05:54:21;;;;;;;9.90;4.97;;;;;;;;;;4886169;29;20057;-79
2023/10/01 05:56:55;;;;;;;10.00;4.93;;;;;;;;;;4885848;29;20048;-78
2023/10/01 05:59:26;;;;;;;14.93;5.10;;;;;;;;;;4885848;29;20032;-79
2023/10/01 06:01:57;;;;;;;10.32;6.65;;;;;;;;;;4885741;29;20045;-78
2023/10/01 06:04:28;;;;;;;12.13;5.03;;;;;;;;;;4864468;29;20050;-78
2023/10/01 06:07:02;;;;;;;12.18;4.90;;;;;;;;;;4862263;29;20053;-78
2023/10/01 06:09:35;;;;;;;11.55;5.05;;;;;;;;;;4862123;29;20048;-78
2023/10/01 06:12:05;;;;;;;11.40;5.00;;;;;;;;;;4862561;29;20060;-78
2023/10/01 06:14:41;;;;;;;11.30;4.82;;;;;;;;;;4862600;29;20393;-79
2023/10/01 06:17:11;;;;;;;13.10;5.00;;;;;;;;;;4862254;29;20053;-78
2023/10/01 06:19:42;;;;;;;13.77;4.32;;;;;;;;;;4862102;29;20052;-78
2023/10/01 06:22:22;;;;;;;13.55;4.18;;;;;;;;;;4862377;29;20449;-78
2023/10/01 06:24:54;;;;;;;14.35;5.15;;;;;;;;;;4862899;29;20057;-78
2023/10/01 06:27:25;;;;;;;7.88;3.95;;;;;;;;;;4861879;29;20073;-78
2023/10/01 06:30:00;;;;;;;9.68;4.45;;;;;;;;;;4862212;29;20054;-78
2023/10/01 06:32:30;;;;;;;10.32;3.63;;;;;;;;;;4861726;29;20504;-78
2023/10/01 06:35:02;;;;;;;12.05;4.15;;;;;;;;;;4861485;29;20080;-78
2023/10/01 06:37:50;;;;;;;7.68;4.10;;;;;;;;;;4861692;29;20056;-78
2023/10/01 06:40:32;;;;;;;9.07;3.85;;;;;;;;;;4861704;29;20054;-77
2023/10/01 06:43:02;;;;;;;7.95;3.88;;;;;;;;;;4862249;29;20073;-77
2023/10/01 06:45:42;;;;;;;8.00;3.60;;;;;;;;;;4862013;29;20069;-77
2023/10/01 06:48:14;;;;;;;7.95;3.58;;;;;;;;;;4861771;29;20054;-77
2023/10/01 06:50:48;;;;;;;8.73;3.72;;;;;;;;;;4861358;29;20046;-77
2023/10/01 06:53:17;;;;;;;11.82;4.20;;;;;;;;;;4861754;29;20053;-77
2023/10/01 06:55:47;;;;;;;9.80;4.13;;;;;;;;;;4861306;29;20053;-77
2023/10/01 06:58:17;;;;;;;9.85;3.88;;;;;;;;;;4861529;29;20119;-78
2023/10/01 07:00:47;;;;;;;8.43;3.80;;;;;;;;;;4861584;29;20052;-77
2023/10/01 07:03:18;;;;;;;10.80;4.35;;;;;;;;;;4861350;29;20056;-77
2023/10/01 07:05:55;;;;;;;7.18;3.72;;;;;;;;;;4861083;29;20045;-77
2023/10/01 07:08:37;;;;;;;11.90;4.22;;;;;;;;;;4861567;29;20393;-78
2023/10/01 07:11:11;;;;;;;12.68;4.18;;;;;;;;;;4861320;29;20060;-78
2023/10/01 07:13:42;;;;;;;13.15;4.30;;;;;;;;;;4860933;29;20052;-78
2023/10/01 07:16:18;;;;;;;9.60;4.30;;;;;;;;;;4860819;29;20045;-78
2023/10/01 07:18:49;;;;;;;10.60;4.38;;;;;;;;;;4861279;29;20045;-78
2023/10/01 07:21:19;;;;;;;11.18;4.85;;;;;;;;;;4861795;29;20049;-78
2023/10/01 07:23:49;;;;;;;9.05;4.22;;;;;;;;;;4861234;29;20045;-77
2023/10/01 07:26:19;;;;;;;10.48;4.63;;;;;;;;;;4861086;29;20050;-77
2023/10/01 07:28:55;;;;;;;10.23;4.82;;;;;;;;;;4861044;29;20060;-78
2023/10/01 07:31:33;;;;;;;11.23;5.07;;;;;;;;;;4861021;29;20064;-78
2023/10/01 07:34:12;;;;;;;8.95;4.47;;;;;;;;;;4861228;29;20064;-77
2023/10/01 07:36:45;;;;;;;11.70;4.40;;;;;;;;;;4860963;29;20041;-78
2023/10/01 07:39:15;;;;;;;11.32;4.60;;;;;;;;;;4861439;29;20049;-77
2023/10/01 07:41:46;;;;;;;11.05;5.38;;;;;;;;;;4860384;29;20061;-78
2023/10/01 07:44:18;;;;;;;12.48;5.20;;;;;;;;;;4860981;29;20473;-78
2023/10/01 07:46:49;;;;;;;11.75;4.55;;;;;;;;;;4861075;29;20045;-78
2023/10/01 07:49:21;;;;;;;17.88;5.45;;;;;;;;;;4860832;29;20058;-78
2023/10/01 07:51:51;;;;;;;10.02;4.63;;;;;;;;;;4860645;29;20049;-78
2023/10/01 07:54:22;;;;;;;10.55;4.97;;;;;;;;;;4860824;29;20401;-77
2023/10/01 07:56:56;;;;;;;9.02;4.45;;;;;;;;;;4860836;29;20050;-78
2023/10/01 07:59:28;;;;;;;9.35;4.93;;;;;;;;;;4861337;29;20057;-78
2023/10/01 08:02:09;;;;;;;10.77;4.95;;;;;;;;;;4854298;29;20045;-78
2023/10/01 08:07:22;;;;;;;15.70;5.60;;;;;;;;;;4859301;29;20057;-76
2023/10/01 08:09:54;;;;;;;16.75;5.80;;;;;;;;;;4854054;29;20048;-77
2023/10/01 08:15:31;;;;;;;14.25;5.50;;;;;;;;;;4826998;29;20080;-76
2023/10/01 08:18:34;;;;;;;13.48;5.50;;;;;;;;;;4856209;29;20068;-77
2023/10/01 08:21:15;;;;;;;13.20;5.32;;;;;;;;;;4860545;29;20057;-78
2023/10/01 08:23:48;;;;;;;14.32;5.78;;;;;;;;;;4863992;29;20052;-78
2023/10/01 08:29:07;;;;;;;12.38;6.15;;;;;;;;;;4863978;29;20069;-76
2023/10/01 08:32:11;;;;;;;15.48;5.63;;;;;;;;;;4864392;29;20378;-77
2023/10/01 08:35:01;;;;;;;11.68;5.40;;;;;;;;;;4861025;29;20065;-77
2023/10/01 08:37:23;;;;;;;19.90;7.72;;;;;;;;;;4863816;29;20041;-78
2023/10/01 08:39:53;;;;;;;17.48;6.50;;;;;;;;;;4863700;29;20049;-78
2023/10/01 08:42:28;;;;;;;16.77;6.50;;;;;;;;;;4862764;29;20428;-78
2023/10/01 08:45:03;;;;;;;12.32;5.72;;;;;;;;;;4862313;29;20064;-78
2023/10/01 08:47:37;;;;;;;15.93;6.22;;;;;;;;;;4862898;29;20061;-78
2023/10/01 08:53:00;;;;;;;11.35;5.57;;;;;;;;;;4860442;29;20053;-78
2023/10/01 09:00:53;;;;;;;12.77;4.13;;;;;;;;;;4860205;29;20407;-78
2023/10/01 09:03:28;;;;;;;13.35;5.07;;;;;;;;;;4859824;29;20057;-79
2023/10/01 09:06:04;;;;;;;16.52;5.43;;;;;;;;;;4862146;29;20057;-78
2023/10/01 09:08:43;;;;;;;12.52;5.32;;;;;;;;;;4862327;29;20068;-79
2023/10/01 09:11:15;;;;;;;12.23;5.72;;;;;;;;;;4856772;29;20054;-78
2023/10/01 09:13:58;;;;;;;11.13;5.05;;;;;;;;;;4845124;29;20057;-78
2023/10/01 09:16:42;;;;;;;20.85;5.82;;;;;;;;;;4844302;29;20050;-78
2023/10/01 09:19:30;;;;;;;13.85;4.97;;;;;;;;;;4845303;29;20422;-78
2023/10/01 09:22:09;;;;;;;;;;;;;;;;;;4845602;29;20065;-78
2023/10/01 09:24:41;;;;;;;15.60;5.07;;;;;;;;;;4844710;29;20494;-78
2023/10/01 09:27:19;;;;;;;14.88;4.93;;;;;;;;;;4844624;29;20386;-78
2023/10/01 09:29:57;;;;;;;13.40;4.68;;;;;;;;;;4845018;29;20056;-79
2023/10/01 09:32:51;;;;;;;12.27;4.90;;;;;;;;;;4827607;29;20054;-78
2023/10/01 09:35:38;;;;;;;11.82;4.75;;;;;;;;;;4844373;29;20371;-78
2023/10/01 09:38:12;;;;;;;13.27;4.82;;;;;;;;;;4844250;29;20361;-78
2023/10/01 09:40:46;;;;;;;15.45;5.05;;;;;;;;;;4844207;29;20065;-78
2023/10/01 09:43:18;;;;;;;13.88;4.30;;;;;;;;;;4844178;29;20057;-79
2023/10/01 09:45:49;;;;;;;14.95;4.75;;;;;;;;;;4828018;29;20057;-78
2023/10/01 09:48:30;;;;;;;8.55;4.40;;;;;;;;;;4844022;29;20057;-78
2023/10/01 09:51:08;;;;;;;9.85;4.35;;;;;;;;;;4844247;29;20054;-79
2023/10/01 09:53:48;;;;;;;10.02;4.40;;;;;;;;;;4844705;29;20050;-79
2023/10/01 09:59:11;;;;;;;7.80;3.95;;;;;;;;;;4837792;29;20064;-78
2023/10/01 10:01:42;;;;;;;11.20;4.18;;;;;;;;;;4843904;29;20153;-78
2023/10/01 10:04:20;;;;;;;9.70;4.45;;;;;;;;;;4843980;29;20050;-78
2023/10/01 10:06:59;;;;;;;13.80;4.18;;;;;;;;;;4828821;29;20053;-77
2023/10/01 10:09:31;;;;;;;11.70;4.05;;;;;;;;;;4843855;29;20122;-78
2023/10/01 10:12:07;;;;;;;10.05;4.15;;;;;;;;;;4844020;29;20057;-78
2023/10/01 10:14:39;;;;;;;7.30;3.53;;;;;;;;;;4843986;29;20402;-77
2023/10/01 10:23:14;;;;;;;11.15;3.70;;;;;;;;;;4843538;29;20050;-78
2023/10/01 10:25:45;;;;;;;8.45;3.80;;;;;;;;;;4843089;29;20076;-79
2023/10/01 10:28:25;;;;;;;9.35;3.70;;;;;;;;;;4843719;29;20050;-79
2023/10/01 10:31:41;;;;;;;12.20;3.85;;;;;;;;;;4855320;29;20049;-79
2023/10/01 10:34:29;;;;;;;8.35;3.55;;;;;;;;;;4851654;29;20062;-79
2023/10/01 10:36:59;;;;;;;7.65;3.53;;;;;;;;;;4859832;29;20052;-77
2023/10/01 10:40:04;;;;;;;9.93;4.05;;;;;;;;;;4840313;29;20064;-78
2023/10/01 10:42:34;;;;;;;12.18;3.75;;;;;;;;;;4851673;29;20064;-78
2023/10/01 10:45:22;;;;;;;12.63;4.30;;;;;;;;;;4858831;29;20065;-78
2023/10/01 10:48:04;;;;;;;14.13;3.90;;;;;;;;;;4855532;29;20045;-79
2023/10/01 10:50:53;;;;;;;11.02;3.90;;;;;;;;;;4857879;29;20057;-78
2023/10/01 10:53:42;;;;;;;13.13;4.35;;;;;;;;;;4859950;29;20050;-78
2023/10/01 10:56:14;;;;;;;12.40;4.55;;;;;;;;;;4860134;29;20050;-78
2023/10/01 10:58:44;;;;;;;8.75;4.38;;;;;;;;;;4860134;29;20052;-78
2023/10/01 11:01:20;;;;;;;9.65;4.40;;;;;;;;;;4858416;29;20490;-78
2023/10/01 11:03:57;;;;;;;7.72;3.50;;;;;;;;;;4860200;29;20520;-77
2023/10/01 11:06:44;;;;;;;10.60;3.60;;;;;;;;;;4860107;29;20503;-78
2023/10/01 11:09:27;;;;;;;7.50;3.38;;;;;;;;;;4860058;29;20420;-78
2023/10/01 11:12:06;;;;;;;9.00;3.47;;;;;;;;;;4860422;29;20156;-77
2023/10/01 11:14:37;;;;;;;8.18;3.05;;;;;;;;;;4860401;29;20053;-76
2023/10/01 11:17:08;;;;;;;4.38;2.10;;;;;;;;;;4843584;29;20500;-77
2023/10/01 11:19:38;;;;;;;6.82;3.20;;;;;;;;;;4845796;29;20046;-76
2023/10/01 11:22:09;;;;;;;8.55;3.33;;;;;;;;;;4825740;29;20054;-76
2023/10/01 11:24:42;;;;;;;5.97;3.28;;;;;;;;;;4842001;29;20419;-76
2023/10/01 11:27:43;;;;;;;8.48;2.95;;;;;;;;;;4841985;29;20488;-77
2023/10/01 11:30:16;;;;;;;6.30;2.33;;;;;;;;;;4859365;29;20060;-77
2023/10/01 11:33:12;;;;;;;4.95;2.60;;;;;;;;;;4865099;29;20030;-79
2023/10/01 11:38:50;;;;;;;7.95;2.95;;;;;;;;;;4873603;29;19931;-76
2023/10/01 11:41:38;;;;;;;7.47;2.88;;;;;;;;;;4881623;29;20038;-77
2023/10/01 11:44:10;;;;;;;8.05;3.15;;;;;;;;;;4881459;29;20052;-78
2023/10/01 11:46:58;;;;;;;;;;;;;;;;;;4883001;29;20037;-77
2023/10/01 11:49:34;;;;;;;5.88;2.50;;;;;;;;;;4870290;29;19924;-77
2023/10/01 11:52:25;;;;;;;7.00;2.40;;;;;;;;;;4855893;29;20076;-78
2023/10/01 11:54:55;;;;;;;7.05;2.53;;;;;;;;;;4857802;29;20038;-78
2023/10/01 11:57:31;;;;;;;5.95;2.63;;;;;;;;;;4861419;29;20429;-78
2023/10/01 12:00:01;;;;;;;5.13;2.17;;;;;;;;;;4863096;29;20048;-78
2023/10/01 12:02:43;;;;;;;7.72;3.13;;;;;;;;;;4866492;29;20064;-76
2023/10/01 12:05:13;;;;;;;6.18;3.92;;;;;;;;;;4826598;29;20058;-77
2023/10/01 12:07:44;;;;;;;7.95;3.10;;;;;;;;;;4825706;29;20435;-77
2023/10/01 12:10:35;;;;;;;6.35;2.78;;;;;;;;;;4825973;29;20062;-79
2023/10/01 12:13:10;;;;;;;7.65;3.05;;;;;;;;;;4828073;29;20058;-77
2023/10/01 12:15:52;;;;;;;6.93;3.42;;;;;;;;;;4863306;29;20045;-78
2023/10/01 12:18:36;;;;;;;5.75;2.80;;;;;;;;;;4858996;29;20053;-78
2023/10/01 12:21:24;;;;;;;10.13;4.18;;;;;;;;;;4847673;29;20050;-79
2023/10/01 12:23:55;;;;;;;10.75;3.80;;;;;;;;;;4873989;29;20053;-77
2023/10/01 12:29:12;;;;;;;7.40;3.25;;;;;;;;;;4863191;29;20053;-78
2023/10/01 12:31:45;;;;;;;9.07;4.65;;;;;;;;;;4863405;29;20497;-78
2023/10/01 12:34:17;;;;;;;13.02;3.72;;;;;;;;;;4862822;29;20045;-76
2023/10/01 12:36:47;;;;;;;5.30;2.22;;;;;;;;;;4863077;29;20053;-78
2023/10/01 12:39:27;;;;;;;5.97;2.58;;;;;;;;;;4862817;29;20060;-76
2023/10/01 12:41:56;;;;;;;5.65;2.63;;;;;;;;;;4863033;29;20061;-77
2023/10/01 12:44:34;;;;;;;6.70;2.95;;;;;;;;;;4862407;29;20049;-78
2023/10/01 12:47:09;;;;;;;4.85;1.67;;;;;;;;;;4862616;29;20045;-77
2023/10/01 12:49:42;;;;;;;4.85;1.98;;;;;;;;;;4874093;29;20053;-78
2023/10/01 12:52:14;;;;;;;7.10;1.90;;;;;;;;;;4863605;29;20050;-76
2023/10/01 12:54:44;;;;;;;5.07;2.53;;;;;;;;;;4863577;29;20496;-75
2023/10/01 12:57:22;;;;;;;4.50;1.80;;;;;;;;;;4862950;29;20037;-77
2023/10/01 13:02:43;;;;;;;4.47;2.30;;;;;;;;;;4863862;29;20057;-77
2023/10/01 13:05:19;;;;;;;6.07;2.38;;;;;;;;;;4863511;29;20057;-77
2023/10/01 13:07:58;;;;;;;5.68;2.00;;;;;;;;;;4862451;29;20054;-76
2023/10/01 13:10:34;;;;;;;3.65;1.75;;;;;;;;;;4863054;29;20064;-77
2023/10/01 13:13:08;;;;;;;3.95;1.65;;;;;;;;;;4862522;29;20049;-77
2023/10/01 13:15:41;;;;;;;6.85;2.58;;;;;;;;;;4860891;29;20559;-78
2023/10/01 13:18:22;;;;;;;5.32;3.15;;;;;;;;;;4861367;29;20061;-77
2023/10/01 13:23:28;;;;;;;6.50;2.20;;;;;;;;;;4862026;29;20042;-78
2023/10/01 13:26:09;;;;;;;4.47;1.92;;;;;;;;;;4857323;29;20057;-76
2023/10/01 13:29:28;;;;;;;3.97;1.77;;;;;;;;;;4857905;29;20054;-78
2023/10/01 13:31:40;;;;;;;5.03;2.00;;;;;;;;;;4859351;29;20065;-77
2023/10/01 14:10:25;;;;;;;4.45;2.10;;;;;;;;;;4846610;29;20041;-76
2023/10/01 14:12:55;;;;;;;4.35;2.45;;;;;;;;;;4862064;29;20057;-78
2023/10/01 14:15:26;;;;;;;4.18;1.77;;;;;;;;;;4862334;29;20056;-77
2023/10/01 14:18:02;;;;;;;4.30;2.20;;;;;;;;;;4862039;29;20049;-77
2023/10/01 14:23:26;;;;;;;7.93;2.38;;;;;;;;;;4857470;29;20371;-77
2023/10/01 14:26:10;;;;;;;6.22;1.95;;;;;;;;;;4850766;29;20049;-78
2023/10/01 14:28:46;;;;;;;9.60;2.63;;;;;;;;;;4861319;29;20056;-75
2023/10/01 14:31:41;;;;;;;4.70;2.17;;;;;;;;;;4844396;29;20493;-77
2023/10/01 14:34:12;;;;;;;4.65;2.15;;;;;;;;;;4860535;29;20060;-77
2023/10/01 14:36:42;;;;;;;3.30;1.40;;;;;;;;;;4860643;29;20053;-77
2023/10/01 14:39:13;;;;;;;4.15;2.08;;;;;;;;;;4860536;29;20382;-78
2023/10/01 14:41:50;;;;;;;4.28;2.53;;;;;;;;;;4860869;29;20057;-77
2023/10/01 14:44:24;;;;;;;5.57;2.13;;;;;;;;;;4859486;29;20053;-77
2023/10/01 14:46:57;;;;;;;5.72;2.90;;;;;;;;;;4859568;29;20446;-77
2023/10/01 14:49:27;;;;;;;2.97;1.33;;;;;;;;;;4844066;29;20049;-77
2023/10/01 14:52:00;;;;;;;5.53;1.90;;;;;;;;;;4860693;29;20065;-76
2023/10/01 14:54:36;;;;;;;3.70;1.65;;;;;;;;;;4860641;29;20424;-76
2023/10/01 14:57:07;;;;;;;3.72;1.67;;;;;;;;;;4823934;29;20069;-77
2023/10/01 14:59:37;;;;;;;4.03;1.73;;;;;;;;;;4823975;29;20069;-76
2023/10/01 15:02:15;;;;;;;5.75;1.48;;;;;;;;;;4840932;29;20041;-77
2023/10/01 15:04:46;;;;;;;4.28;1.77;;;;;;;;;;4859595;29;20050;-77
2023/10/01 15:07:21;;;;;;;6.30;1.50;;;;;;;;;;4845482;29;20054;-77
2023/10/01 15:10:04;;;;;;;8.27;2.58;;;;;;;;;;4842655;29;20046;-75
2023/10/01 15:12:35;;;;;;;4.07;2.00;;;;;;;;;;4842654;29;20046;-76
2023/10/01 15:15:25;;;;;;;1.40;0.80;;;;;;;;;;4850250;29;20128;-77
2023/10/01 15:18:17;;;;;;;3.30;1.77;;;;;;;;;;4807309;29;20142;-78
2023/10/01 15:20:54;;;;;;;3.45;1.90;;;;;;;;;;4824497;29;20061;-77
2023/10/01 15:23:24;;;;;;;3.65;1.60;;;;;;;;;;4836966;29;20053;-76
2023/10/01 15:25:55;;;;;;;3.90;1.63;;;;;;;;;;4842201;29;20647;-76
2023/10/01 15:28:27;;;;;;;3.08;1.35;;;;;;;;;;4823560;29;20538;-78
2023/10/01 15:31:01;;;;;;;3.10;1.65;;;;;;;;;;4867614;29;20073;-77
2023/10/01 15:33:33;;;;;;;3.05;1.58;;;;;;;;;;4859920;29;20045;-78
2023/10/01 15:36:05;;;;;;;3.60;1.42;;;;;;;;;;4859401;29;20471;-78
2023/10/01 15:38:35;;;;;;;4.45;1.50;;;;;;;;;;4859730;29;20049;-77
2023/10/01 15:41:09;;;;;;;4.57;1.42;;;;;;;;;;4859940;29;20050;-78
2023/10/01 15:43:50;;;;;;;4.55;1.30;;;;;;;;;;4859824;29;20068;-78
2023/10/01 15:46:20;;;;;;;2.92;1.33;;;;;;;;;;4859169;29;20057;-78
2023/10/01 15:49:00;;;;;;;3.28;1.10;;;;;;;;;;4843882;29;20053;-79
2023/10/01 15:51:31;;;;;;;3.03;1.10;;;;;;;;;;4873931;29;20065;-78
2023/10/01 15:54:02;;;;;;;5.35;1.23;;;;;;;;;;4859735;29;20060;-80
2023/10/01 15:56:32;;;;;;;3.30;1.90;;;;;;;;;;4859436;29;20505;-79
2023/10/01 15:59:10;;;;;;;3.92;1.35;;;;;;;;;;4859563;29;20037;-80
2023/10/01 16:01:50;;;;;;;;;;;;;;;;;;4843801;29;20051;-79
2023/10/01 16:04:23;;;;;;;1.90;1.08;;;;;;;;;;4859532;29;19935;-80
2023/10/01 16:07:01;;;;;;;2.67;1.10;;;;;;;;;;4859906;29;20412;-79
2023/10/01 16:09:41;;;;;;;2.63;1.20;;;;;;;;;;4859559;29;20058;-78
2023/10/01 16:12:16;;;;;;;2.05;1.02;;;;;;;;;;4859680;29;20041;-79
2023/10/01 16:14:46;;;;;;;2.30;1.15;;;;;;;;;;4835899;29;20054;-79
2023/10/01 16:17:31;;;;;;;3.65;0.90;;;;;;;;;;4840999;29;20063;-79
2023/10/01 16:20:02;;;;;;;2.90;1.08;;;;;;;;;;4849077;29;20049;-79
2023/10/01 16:22:39;;;;;;;2.35;1.00;;;;;;;;;;4859895;29;20056;-79
2023/10/01 16:25:10;;;;;;;2.90;1.10;;;;;;;;;;4859646;29;20485;-78
2023/10/01 16:27:41;;;;;;;3.17;1.10;;;;;;;;;;4859554;29;20049;-78
2023/10/01 16:30:19;;;;;;;2.20;1.15;;;;;;;;;;4859646;29;20054;-80
2023/10/01 16:32:52;;;;;;;5.45;1.58;;;;;;;;;;4859600;29;20054;-78
2023/10/01 16:35:27;;;;;;;1.55;0.82;;;;;;;;;;4859171;29;20421;-79
2023/10/01 16:38:05;;;;;;;1.85;0.75;;;;;;;;;;4859620;29;20057;-77
2023/10/01 16:40:36;;;;;;;2.63;1.20;;;;;;;;;;4853789;29;20397;-79
2023/10/01 16:43:14;;;;;;;2.00;1.00;;;;;;;;;;4856968;29;20489;-78
2023/10/01 16:45:45;;;;;;;3.53;1.23;;;;;;;;;;4861241;29;20049;-77
2023/10/01 16:48:25;;;;;;;2.28;1.00;;;;;;;;;;4862133;29;20472;-79
2023/10/01 16:50:59;;;;;;;2.17;0.95;;;;;;;;;;4857663;29;20539;-78
2023/10/01 16:53:34;;;;;;;2.05;1.02;;;;;;;;;;4862345;29;20480;-79
2023/10/01 16:56:23;;;;;;;1.92;1.02;;;;;;;;;;4862016;29;20046;-76
2023/10/01 16:59:04;;;;;;;4.15;1.00;;;;;;;;;;4861685;29;20057;-79
2023/10/01 17:01:38;;;;;;;4.68;1.10;;;;;;;;;;4856797;29;20489;-77
2023/10/01 17:04:34;;;;;;;3.67;1.33;;;;;;;;;;4861762;29;20049;-78